sensor_id;sensor_type;location;lat;lon;timestamp;temperature;humidity
66610;DHT22;53468;48.276;14.416;2022-11-13T01:25:18;2.40;99.90
66610;DHT22;53468;48.276;14.416;2022-11-13T01:31:42;2.30;99.90
66610;DHT22;53468;48.276;14.416;2022-11-13T03:15:45;2.60;99.90
66610;DHT22;53468;48.276;14.416;2022-11-13T03:22:17;2.60;99.90
66610;DHT22;53468;48.276;14.416;2022-11-13T03:28:20;2.70;99.90
66610;DHT22;53468;48.276;14.416;2022-11-13T03:54:19;2.90;99.90
66610;DHT22;53468;48.276;14.416;2022-11-13T04:00:29;2.90;99.90
66610;DHT22;53468;48.276;14.416;2022-11-13T05:10:35;2.40;99.90
66610;DHT22;53468;48.276;14.416;2022-11-13T05:49:05;2.10;99.90
66610;DHT22;53468;48.276;14.416;2022-11-13T06:47:11;3.20;99.90
66610;DHT22;53468;48.276;14.416;2022-11-13T07:00:15;3.70;99.90
66610;DHT22;53468;48.276;14.416;2022-11-13T07:35:35;4.50;99.90
66610;DHT22;53468;48.276;14.416;2022-11-13T07:41:48;4.50;99.90
66610;DHT22;53468;48.276;14.416;2022-11-13T08:00:17;5.10;99.90
66610;DHT22;53468;48.276;14.416;2022-11-13T08:06:26;5.30;99.90
66610;DHT22;53468;48.276;14.416;2022-11-13T08:12:02;5.40;99.90
66610;DHT22;53468;48.276;14.416;2022-11-13T13:29:34;12.20;99.90
66610;DHT22;53468;48.276;14.416;2022-11-13T13:36:01;12.20;99.90
66610;DHT22;53468;48.276;14.416;2022-11-13T13:42:07;12.20;99.90
66610;DHT22;53468;48.276;14.416;2022-11-13T14:25:54;11.80;99.90
66610;DHT22;53468;48.276;14.416;2022-11-13T14:32:25;11.70;99.90
66610;DHT22;53468;48.276;14.416;2022-11-13T14:38:19;11.60;99.90
66610;DHT22;53468;48.276;14.416;2022-11-13T14:44:32;11.50;99.90
66610;DHT22;53468;48.276;14.416;2022-11-13T15:48:39;10.20;99.90
66610;DHT22;53468;48.276;14.416;2022-11-13T15:55:18;10.10;99.90
66610;DHT22;53468;48.276;14.416;2022-11-13T16:01:35;9.90;99.90
66610;DHT22;53468;48.276;14.416;2022-11-13T16:07:28;9.80;99.90
66610;DHT22;53468;48.276;14.416;2022-11-13T16:13:44;9.80;99.90
66610;DHT22;53468;48.276;14.416;2022-11-13T16:19:59;9.80;99.90
66610;DHT22;53468;48.276;14.416;2022-11-13T16:25:46;9.70;99.90
66610;DHT22;53468;48.276;14.416;2022-11-13T16:37:23;9.50;99.90
66610;DHT22;53468;48.276;14.416;2022-11-13T16:43:04;9.30;99.90
66610;DHT22;53468;48.276;14.416;2022-11-13T16:48:43;9.20;99.90
66610;DHT22;53468;48.276;14.416;2022-11-13T16:54:40;9.00;99.90
66610;DHT22;53468;48.276;14.416;2022-11-13T17:00:22;8.90;99.90
66610;DHT22;53468;48.276;14.416;2022-11-13T17:05:58;8.70;99.90
66610;DHT22;53468;48.276;14.416;2022-11-13T17:11:52;8.60;99.90
66610;DHT22;53468;48.276;14.416;2022-11-13T17:17:28;8.60;99.90
66610;DHT22;53468;48.276;14.416;2022-11-13T17:23:02;8.50;99.90
66610;DHT22;53468;48.276;14.416;2022-11-13T17:28:42;8.50;99.90
66610;DHT22;53468;48.276;14.416;2022-11-13T17:40:48;8.50;99.90
66610;DHT22;53468;48.276;14.416;2022-11-13T17:46:43;8.50;99.90
66610;DHT22;53468;48.276;14.416;2022-11-13T17:52:21;8.40;99.90
66610;DHT22;53468;48.276;14.416;2022-11-13T17:57:58;8.30;99.90
66610;DHT22;53468;48.276;14.416;2022-11-13T18:03:31;8.20;99.90
66610;DHT22;53468;48.276;14.416;2022-11-13T18:09:05;8.10;99.90
66610;DHT22;53468;48.276;14.416;2022-11-13T18:14:37;8.00;99.90
66610;DHT22;53468;48.276;14.416;2022-11-13T18:20:11;8.00;99.90
66610;DHT22;53468;48.276;14.416;2022-11-13T18:25:45;7.90;99.90
66610;DHT22;53468;48.276;14.416;2022-11-13T18:31:19;7.90;99.90
66610;DHT22;53468;48.276;14.416;2022-11-13T18:36:53;7.90;99.90
66610;DHT22;53468;48.276;14.416;2022-11-13T18:42:28;8.00;99.90
66610;DHT22;53468;48.276;14.416;2022-11-13T18:48:01;8.10;99.90
66610;DHT22;53468;48.276;14.416;2022-11-13T18:53:36;8.20;99.90
66610;DHT22;53468;48.276;14.416;2022-11-13T18:59:15;8.30;99.90
66610;DHT22;53468;48.276;14.416;2022-11-13T19:04:48;8.30;99.90
66610;DHT22;53468;48.276;14.416;2022-11-13T19:16:33;8.40;99.90
66610;DHT22;53468;48.276;14.416;2022-11-13T19:22:41;8.40;99.90
66610;DHT22;53468;48.276;14.416;2022-11-13T19:28:39;8.50;99.90
66610;DHT22;53468;48.276;14.416;2022-11-13T19:34:55;8.50;99.90
66610;DHT22;53468;48.276;14.416;2022-11-13T22:23:48;6.40;99.90
